< < Back
Terminal Aerodrome Forecast


Current Version              Previous Versions:   1  2  3  4  5  6  7  8  9  

Terminal Aerodrome Forecast

332
FTUS42 KCAE 260830 AAA
TAFCAE
TAF AMD
KCAE 260830Z 2609/2706 08005KT P6SM SCT250
     FM261000 05005KT P6SM SCT007 BKN015
     FM261600 05007KT P6SM SCT025
     FM261800 VRB04KT P6SM SCT045=



Latest METAR

058
SAUS80 KWBC 261700 CCA
MTRCAE
METAR KCAE 261656Z 09007KT 10SM SCT038 SCT200 32/19 A3016 RMK AO2 SLP207
T03220194 $


USA.gov is the U.S. government's official web portal to all federal, state and local government web resources and services.